sensor_id;sensor_type;location;lat;lon;timestamp;P1;durP1;ratioP1;P2;durP2;ratioP2
50128;SDS011;36026;45.478;9.224;2023-05-18T00:01:32;6.63;;;4.35;;
50128;SDS011;36026;45.478;9.224;2023-05-18T00:04:34;5.22;;;3.95;;
50128;SDS011;36026;45.478;9.224;2023-05-18T00:07:37;5.88;;;4.22;;
50128;SDS011;36026;45.478;9.224;2023-05-18T00:10:42;8.90;;;4.63;;
50128;SDS011;36026;45.478;9.224;2023-05-18T00:13:43;8.13;;;4.13;;
50128;SDS011;36026;45.478;9.224;2023-05-18T00:16:45;6.35;;;4.07;;
50128;SDS011;36026;45.478;9.224;2023-05-18T00:19:47;6.30;;;4.00;;
50128;SDS011;36026;45.478;9.224;2023-05-18T00:22:50;5.43;;;4.35;;
50128;SDS011;36026;45.478;9.224;2023-05-18T00:25:52;6.28;;;4.05;;
50128;SDS011;36026;45.478;9.224;2023-05-18T00:28:54;6.07;;;4.10;;
50128;SDS011;36026;45.478;9.224;2023-05-18T00:31:55;4.45;;;3.70;;
50128;SDS011;36026;45.478;9.224;2023-05-18T00:34:57;6.43;;;4.57;;
50128;SDS011;36026;45.478;9.224;2023-05-18T00:38:00;5.63;;;4.07;;
50128;SDS011;36026;45.478;9.224;2023-05-18T00:41:02;7.05;;;4.53;;
50128;SDS011;36026;45.478;9.224;2023-05-18T00:44:04;5.50;;;4.15;;
50128;SDS011;36026;45.478;9.224;2023-05-18T00:47:06;7.10;;;5.10;;
50128;SDS011;36026;45.478;9.224;2023-05-18T00:50:08;5.07;;;3.95;;
50128;SDS011;36026;45.478;9.224;2023-05-18T00:53:12;6.60;;;4.47;;
50128;SDS011;36026;45.478;9.224;2023-05-18T00:56:14;5.47;;;3.50;;
50128;SDS011;36026;45.478;9.224;2023-05-18T00:59:16;6.25;;;4.65;;
50128;SDS011;36026;45.478;9.224;2023-05-18T01:02:18;6.20;;;4.60;;
50128;SDS011;36026;45.478;9.224;2023-05-18T01:05:20;6.63;;;4.72;;
50128;SDS011;36026;45.478;9.224;2023-05-18T01:08:24;6.20;;;4.30;;
50128;SDS011;36026;45.478;9.224;2023-05-18T01:11:32;6.32;;;4.25;;
50128;SDS011;36026;45.478;9.224;2023-05-18T01:14:42;6.30;;;4.30;;
50128;SDS011;36026;45.478;9.224;2023-05-18T01:18:00;5.82;;;4.97;;
50128;SDS011;36026;45.478;9.224;2023-05-18T01:21:08;9.43;;;4.80;;
50128;SDS011;36026;45.478;9.224;2023-05-18T01:24:19;5.97;;;4.57;;
50128;SDS011;36026;45.478;9.224;2023-05-18T01:27:26;7.90;;;4.38;;
50128;SDS011;36026;45.478;9.224;2023-05-18T01:30:28;5.43;;;4.17;;
50128;SDS011;36026;45.478;9.224;2023-05-18T01:33:31;6.22;;;4.75;;
50128;SDS011;36026;45.478;9.224;2023-05-18T01:36:32;6.88;;;4.75;;
50128;SDS011;36026;45.478;9.224;2023-05-18T01:39:34;6.68;;;5.10;;
50128;SDS011;36026;45.478;9.224;2023-05-18T01:42:38;5.97;;;4.80;;
50128;SDS011;36026;45.478;9.224;2023-05-18T01:45:46;7.25;;;5.07;;
50128;SDS011;36026;45.478;9.224;2023-05-18T01:48:50;7.72;;;5.10;;
50128;SDS011;36026;45.478;9.224;2023-05-18T01:51:55;7.47;;;4.95;;
50128;SDS011;36026;45.478;9.224;2023-05-18T01:55:00;8.32;;;5.57;;
50128;SDS011;36026;45.478;9.224;2023-05-18T01:58:04;8.50;;;5.03;;
50128;SDS011;36026;45.478;9.224;2023-05-18T02:01:07;6.55;;;4.85;;
50128;SDS011;36026;45.478;9.224;2023-05-18T02:04:08;8.55;;;5.63;;
50128;SDS011;36026;45.478;9.224;2023-05-18T02:07:10;7.97;;;5.95;;
50128;SDS011;36026;45.478;9.224;2023-05-18T02:10:12;7.45;;;5.45;;
50128;SDS011;36026;45.478;9.224;2023-05-18T02:13:15;11.73;;;6.00;;
50128;SDS011;36026;45.478;9.224;2023-05-18T02:16:17;10.73;;;6.80;;
50128;SDS011;36026;45.478;9.224;2023-05-18T02:19:19;9.25;;;6.25;;
50128;SDS011;36026;45.478;9.224;2023-05-18T02:22:20;8.63;;;6.57;;
50128;SDS011;36026;45.478;9.224;2023-05-18T02:25:22;8.57;;;6.82;;
50128;SDS011;36026;45.478;9.224;2023-05-18T02:28:25;10.95;;;6.97;;
50128;SDS011;36026;45.478;9.224;2023-05-18T02:31:27;10.75;;;6.78;;
50128;SDS011;36026;45.478;9.224;2023-05-18T02:34:30;10.35;;;6.63;;
50128;SDS011;36026;45.478;9.224;2023-05-18T02:37:32;9.52;;;6.78;;
50128;SDS011;36026;45.478;9.224;2023-05-18T02:40:38;11.07;;;7.63;;
50128;SDS011;36026;45.478;9.224;2023-05-18T02:43:41;12.05;;;7.57;;
50128;SDS011;36026;45.478;9.224;2023-05-18T02:46:43;9.93;;;7.40;;
50128;SDS011;36026;45.478;9.224;2023-05-18T02:49:45;12.27;;;7.95;;
50128;SDS011;36026;45.478;9.224;2023-05-18T02:52:46;11.02;;;8.23;;
50128;SDS011;36026;45.478;9.224;2023-05-18T02:55:52;11.63;;;7.93;;
50128;SDS011;36026;45.478;9.224;2023-05-18T02:58:57;11.68;;;7.70;;
50128;SDS011;36026;45.478;9.224;2023-05-18T03:01:59;11.50;;;8.38;;
50128;SDS011;36026;45.478;9.224;2023-05-18T03:05:01;12.70;;;8.65;;
50128;SDS011;36026;45.478;9.224;2023-05-18T03:08:04;12.40;;;9.30;;
50128;SDS011;36026;45.478;9.224;2023-05-18T03:11:06;13.95;;;9.70;;
50128;SDS011;36026;45.478;9.224;2023-05-18T03:14:09;13.68;;;10.10;;
50128;SDS011;36026;45.478;9.224;2023-05-18T03:17:10;12.90;;;9.35;;
50128;SDS011;36026;45.478;9.224;2023-05-18T03:20:12;13.57;;;10.35;;
50128;SDS011;36026;45.478;9.224;2023-05-18T03:23:14;16.85;;;11.35;;
50128;SDS011;36026;45.478;9.224;2023-05-18T03:26:16;16.25;;;11.68;;
50128;SDS011;36026;45.478;9.224;2023-05-18T03:29:19;14.82;;;11.88;;
50128;SDS011;36026;45.478;9.224;2023-05-18T03:32:20;19.43;;;12.23;;
50128;SDS011;36026;45.478;9.224;2023-05-18T03:35:23;17.63;;;12.18;;
50128;SDS011;36026;45.478;9.224;2023-05-18T03:38:25;15.88;;;11.52;;
50128;SDS011;36026;45.478;9.224;2023-05-18T03:41:27;18.60;;;11.90;;
50128;SDS011;36026;45.478;9.224;2023-05-18T03:44:30;17.70;;;12.55;;
50128;SDS011;36026;45.478;9.224;2023-05-18T03:47:31;19.17;;;12.20;;
50128;SDS011;36026;45.478;9.224;2023-05-18T03:50:33;16.83;;;13.27;;
50128;SDS011;36026;45.478;9.224;2023-05-18T03:53:35;17.08;;;12.52;;
50128;SDS011;36026;45.478;9.224;2023-05-18T03:56:37;17.48;;;13.55;;
50128;SDS011;36026;45.478;9.224;2023-05-18T03:59:40;24.08;;;14.43;;
50128;SDS011;36026;45.478;9.224;2023-05-18T04:02:42;18.73;;;13.83;;
50128;SDS011;36026;45.478;9.224;2023-05-18T04:05:43;16.85;;;13.27;;
50128;SDS011;36026;45.478;9.224;2023-05-18T04:08:45;16.27;;;13.18;;
50128;SDS011;36026;45.478;9.224;2023-05-18T04:11:47;17.02;;;13.50;;
50128;SDS011;36026;45.478;9.224;2023-05-18T04:14:50;20.65;;;13.60;;
50128;SDS011;36026;45.478;9.224;2023-05-18T04:17:53;16.73;;;12.95;;
50128;SDS011;36026;45.478;9.224;2023-05-18T04:20:54;15.98;;;12.57;;
50128;SDS011;36026;45.478;9.224;2023-05-18T04:23:56;17.77;;;13.50;;
50128;SDS011;36026;45.478;9.224;2023-05-18T04:27:01;16.23;;;13.23;;
50128;SDS011;36026;45.478;9.224;2023-05-18T04:30:05;16.15;;;13.07;;
50128;SDS011;36026;45.478;9.224;2023-05-18T04:33:09;19.30;;;14.93;;
50128;SDS011;36026;45.478;9.224;2023-05-18T04:36:11;19.10;;;14.68;;
50128;SDS011;36026;45.478;9.224;2023-05-18T04:39:14;21.02;;;15.15;;
50128;SDS011;36026;45.478;9.224;2023-05-18T04:42:15;19.48;;;15.15;;
50128;SDS011;36026;45.478;9.224;2023-05-18T04:45:19;18.42;;;14.75;;
50128;SDS011;36026;45.478;9.224;2023-05-18T04:48:21;21.40;;;14.40;;
50128;SDS011;36026;45.478;9.224;2023-05-18T04:51:25;18.70;;;13.55;;
50128;SDS011;36026;45.478;9.224;2023-05-18T04:54:27;20.13;;;14.73;;
50128;SDS011;36026;45.478;9.224;2023-05-18T04:57:30;17.13;;;14.07;;
50128;SDS011;36026;45.478;9.224;2023-05-18T05:00:33;17.08;;;13.35;;
50128;SDS011;36026;45.478;9.224;2023-05-18T05:03:35;18.50;;;14.00;;
50128;SDS011;36026;45.478;9.224;2023-05-18T05:06:37;19.83;;;13.48;;
50128;SDS011;36026;45.478;9.224;2023-05-18T05:09:39;18.70;;;14.18;;
50128;SDS011;36026;45.478;9.224;2023-05-18T05:12:40;21.55;;;14.57;;
50128;SDS011;36026;45.478;9.224;2023-05-18T05:15:43;18.13;;;14.07;;
50128;SDS011;36026;45.478;9.224;2023-05-18T05:18:45;18.37;;;14.93;;
50128;SDS011;36026;45.478;9.224;2023-05-18T05:21:47;17.88;;;14.18;;
50128;SDS011;36026;45.478;9.224;2023-05-18T05:24:48;20.90;;;15.68;;
50128;SDS011;36026;45.478;9.224;2023-05-18T05:27:50;22.75;;;16.17;;
50128;SDS011;36026;45.478;9.224;2023-05-18T05:30:53;22.80;;;17.10;;
50128;SDS011;36026;45.478;9.224;2023-05-18T05:33:55;21.03;;;16.17;;
50128;SDS011;36026;45.478;9.224;2023-05-18T05:36:56;20.90;;;15.60;;
50128;SDS011;36026;45.478;9.224;2023-05-18T05:39:58;18.13;;;14.77;;
50128;SDS011;36026;45.478;9.224;2023-05-18T05:42:59;19.42;;;13.95;;
50128;SDS011;36026;45.478;9.224;2023-05-18T05:46:02;17.23;;;13.55;;
50128;SDS011;36026;45.478;9.224;2023-05-18T05:49:04;13.40;;;9.88;;
50128;SDS011;36026;45.478;9.224;2023-05-18T05:52:06;10.15;;;7.65;;
50128;SDS011;36026;45.478;9.224;2023-05-18T05:55:08;9.48;;;6.88;;
50128;SDS011;36026;45.478;9.224;2023-05-18T05:58:09;10.60;;;6.05;;
50128;SDS011;36026;45.478;9.224;2023-05-18T06:01:12;11.43;;;6.47;;
50128;SDS011;36026;45.478;9.224;2023-05-18T06:04:14;6.88;;;5.30;;
50128;SDS011;36026;45.478;9.224;2023-05-18T06:07:16;7.10;;;5.18;;
50128;SDS011;36026;45.478;9.224;2023-05-18T06:10:18;11.02;;;5.60;;
50128;SDS011;36026;45.478;9.224;2023-05-18T06:13:19;7.47;;;5.65;;
50128;SDS011;36026;45.478;9.224;2023-05-18T06:16:23;7.70;;;5.15;;
50128;SDS011;36026;45.478;9.224;2023-05-18T06:22:26;6.47;;;4.43;;
50128;SDS011;36026;45.478;9.224;2023-05-18T06:25:28;10.93;;;5.60;;
50128;SDS011;36026;45.478;9.224;2023-05-18T06:28:30;6.45;;;4.60;;
50128;SDS011;36026;45.478;9.224;2023-05-18T06:31:33;7.90;;;4.65;;
50128;SDS011;36026;45.478;9.224;2023-05-18T06:34:34;9.23;;;4.30;;
50128;SDS011;36026;45.478;9.224;2023-05-18T06:37:36;6.22;;;4.53;;
50128;SDS011;36026;45.478;9.224;2023-05-18T06:40:38;6.65;;;4.22;;
50128;SDS011;36026;45.478;9.224;2023-05-18T06:43:40;7.78;;;4.68;;
50128;SDS011;36026;45.478;9.224;2023-05-18T06:46:43;8.00;;;4.70;;
50128;SDS011;36026;45.478;9.224;2023-05-18T06:49:45;7.03;;;4.93;;
50128;SDS011;36026;45.478;9.224;2023-05-18T06:52:46;8.27;;;5.40;;
50128;SDS011;36026;45.478;9.224;2023-05-18T06:55:48;11.80;;;5.38;;
50128;SDS011;36026;45.478;9.224;2023-05-18T06:58:49;8.48;;;5.57;;
50128;SDS011;36026;45.478;9.224;2023-05-18T07:01:52;11.70;;;6.35;;
50128;SDS011;36026;45.478;9.224;2023-05-18T07:04:54;9.30;;;6.57;;
50128;SDS011;36026;45.478;9.224;2023-05-18T07:07:56;8.52;;;6.50;;
50128;SDS011;36026;45.478;9.224;2023-05-18T07:10:57;8.50;;;6.15;;
50128;SDS011;36026;45.478;9.224;2023-05-18T07:14:01;11.13;;;6.05;;
50128;SDS011;36026;45.478;9.224;2023-05-18T07:17:04;8.75;;;6.30;;
50128;SDS011;36026;45.478;9.224;2023-05-18T07:20:07;7.75;;;5.63;;
50128;SDS011;36026;45.478;9.224;2023-05-18T07:23:09;10.90;;;5.80;;
50128;SDS011;36026;45.478;9.224;2023-05-18T07:26:11;7.95;;;5.40;;
50128;SDS011;36026;45.478;9.224;2023-05-18T07:29:13;8.85;;;6.35;;
50128;SDS011;36026;45.478;9.224;2023-05-18T07:32:16;7.93;;;5.40;;
50128;SDS011;36026;45.478;9.224;2023-05-18T07:35:18;8.77;;;5.50;;
50128;SDS011;36026;45.478;9.224;2023-05-18T07:38:20;9.05;;;5.70;;
50128;SDS011;36026;45.478;9.224;2023-05-18T07:41:22;7.28;;;5.90;;
50128;SDS011;36026;45.478;9.224;2023-05-18T07:44:24;8.15;;;5.60;;
50128;SDS011;36026;45.478;9.224;2023-05-18T07:47:27;7.00;;;5.82;;
50128;SDS011;36026;45.478;9.224;2023-05-18T07:50:29;10.13;;;5.80;;
50128;SDS011;36026;45.478;9.224;2023-05-18T07:53:30;6.95;;;5.07;;
50128;SDS011;36026;45.478;9.224;2023-05-18T07:56:33;8.27;;;5.38;;
50128;SDS011;36026;45.478;9.224;2023-05-18T07:59:35;7.53;;;5.22;;
50128;SDS011;36026;45.478;9.224;2023-05-18T08:02:38;6.32;;;4.75;;
50128;SDS011;36026;45.478;9.224;2023-05-18T08:05:40;8.23;;;4.80;;
50128;SDS011;36026;45.478;9.224;2023-05-18T08:08:42;5.97;;;4.45;;
50128;SDS011;36026;45.478;9.224;2023-05-18T08:11:44;8.93;;;5.03;;
50128;SDS011;36026;45.478;9.224;2023-05-18T08:14:45;6.35;;;4.68;;
50128;SDS011;36026;45.478;9.224;2023-05-18T08:17:48;8.43;;;4.65;;
50128;SDS011;36026;45.478;9.224;2023-05-18T08:20:51;9.15;;;4.65;;
50128;SDS011;36026;45.478;9.224;2023-05-18T08:23:54;6.07;;;4.28;;
50128;SDS011;36026;45.478;9.224;2023-05-18T08:26:56;5.90;;;4.00;;
50128;SDS011;36026;45.478;9.224;2023-05-18T08:29:58;8.15;;;3.38;;
50128;SDS011;36026;45.478;9.224;2023-05-18T08:33:01;7.15;;;3.70;;
50128;SDS011;36026;45.478;9.224;2023-05-18T08:36:03;7.70;;;3.17;;
50128;SDS011;36026;45.478;9.224;2023-05-18T08:39:05;5.72;;;2.90;;
50128;SDS011;36026;45.478;9.224;2023-05-18T08:42:10;4.90;;;2.90;;
50128;SDS011;36026;45.478;9.224;2023-05-18T08:45:21;6.70;;;2.63;;
50128;SDS011;36026;45.478;9.224;2023-05-18T08:48:25;5.82;;;2.72;;
50128;SDS011;36026;45.478;9.224;2023-05-18T08:51:28;7.32;;;2.78;;
50128;SDS011;36026;45.478;9.224;2023-05-18T08:54:31;4.38;;;2.60;;
50128;SDS011;36026;45.478;9.224;2023-05-18T08:57:33;7.40;;;3.03;;
50128;SDS011;36026;45.478;9.224;2023-05-18T09:00:35;4.00;;;2.70;;
50128;SDS011;36026;45.478;9.224;2023-05-18T09:03:38;5.15;;;2.53;;
50128;SDS011;36026;45.478;9.224;2023-05-18T09:06:41;5.38;;;2.72;;
50128;SDS011;36026;45.478;9.224;2023-05-18T09:09:43;5.00;;;2.78;;
50128;SDS011;36026;45.478;9.224;2023-05-18T09:12:44;7.00;;;2.65;;
50128;SDS011;36026;45.478;9.224;2023-05-18T09:15:47;5.65;;;2.28;;
50128;SDS011;36026;45.478;9.224;2023-05-18T09:18:51;8.10;;;2.30;;
50128;SDS011;36026;45.478;9.224;2023-05-18T09:21:53;3.88;;;2.50;;
50128;SDS011;36026;45.478;9.224;2023-05-18T09:24:55;3.58;;;2.40;;
50128;SDS011;36026;45.478;9.224;2023-05-18T09:27:57;3.58;;;2.30;;
50128;SDS011;36026;45.478;9.224;2023-05-18T09:30:59;6.05;;;2.53;;
50128;SDS011;36026;45.478;9.224;2023-05-18T09:34:02;4.45;;;2.75;;
50128;SDS011;36026;45.478;9.224;2023-05-18T09:40:07;5.63;;;2.45;;
50128;SDS011;36026;45.478;9.224;2023-05-18T09:43:09;5.55;;;2.13;;
50128;SDS011;36026;45.478;9.224;2023-05-18T09:46:11;4.97;;;2.53;;
50128;SDS011;36026;45.478;9.224;2023-05-18T09:49:19;4.10;;;2.53;;
50128;SDS011;36026;45.478;9.224;2023-05-18T09:52:21;4.68;;;2.50;;
50128;SDS011;36026;45.478;9.224;2023-05-18T09:55:23;5.53;;;2.53;;
50128;SDS011;36026;45.478;9.224;2023-05-18T09:58:25;6.10;;;2.60;;
50128;SDS011;36026;45.478;9.224;2023-05-18T10:01:31;5.75;;;3.22;;
50128;SDS011;36026;45.478;9.224;2023-05-18T10:04:35;5.55;;;2.35;;
50128;SDS011;36026;45.478;9.224;2023-05-18T10:07:41;6.35;;;2.58;;
50128;SDS011;36026;45.478;9.224;2023-05-18T10:10:45;4.97;;;2.25;;
50128;SDS011;36026;45.478;9.224;2023-05-18T10:13:50;8.90;;;2.10;;
50128;SDS011;36026;45.478;9.224;2023-05-18T10:16:54;6.38;;;2.17;;
50128;SDS011;36026;45.478;9.224;2023-05-18T10:19:57;6.22;;;2.28;;
50128;SDS011;36026;45.478;9.224;2023-05-18T10:22:59;4.90;;;2.00;;
50128;SDS011;36026;45.478;9.224;2023-05-18T10:26:03;5.97;;;1.83;;
50128;SDS011;36026;45.478;9.224;2023-05-18T10:29:08;4.95;;;2.85;;
50128;SDS011;36026;45.478;9.224;2023-05-18T10:32:11;4.97;;;2.42;;
50128;SDS011;36026;45.478;9.224;2023-05-18T10:35:14;6.03;;;2.40;;
50128;SDS011;36026;45.478;9.224;2023-05-18T10:38:18;6.88;;;2.67;;
50128;SDS011;36026;45.478;9.224;2023-05-18T10:44:22;7.05;;;2.35;;
50128;SDS011;36026;45.478;9.224;2023-05-18T10:47:24;3.03;;;1.88;;
50128;SDS011;36026;45.478;9.224;2023-05-18T10:50:28;6.78;;;2.50;;
50128;SDS011;36026;45.478;9.224;2023-05-18T10:53:31;4.93;;;2.35;;
50128;SDS011;36026;45.478;9.224;2023-05-18T10:56:33;5.97;;;2.40;;
50128;SDS011;36026;45.478;9.224;2023-05-18T10:59:36;3.50;;;1.80;;
50128;SDS011;36026;45.478;9.224;2023-05-18T11:02:39;4.85;;;2.60;;
50128;SDS011;36026;45.478;9.224;2023-05-18T11:05:43;5.28;;;2.40;;
50128;SDS011;36026;45.478;9.224;2023-05-18T11:08:49;5.47;;;2.97;;
50128;SDS011;36026;45.478;9.224;2023-05-18T11:11:51;4.97;;;2.05;;
50128;SDS011;36026;45.478;9.224;2023-05-18T11:14:54;5.00;;;2.22;;
50128;SDS011;36026;45.478;9.224;2023-05-18T11:18:11;4.57;;;2.75;;
50128;SDS011;36026;45.478;9.224;2023-05-18T11:21:18;5.43;;;2.85;;
50128;SDS011;36026;45.478;9.224;2023-05-18T11:24:22;6.07;;;2.92;;
50128;SDS011;36026;45.478;9.224;2023-05-18T11:30:26;5.68;;;2.90;;
50128;SDS011;36026;45.478;9.224;2023-05-18T11:33:28;7.38;;;2.70;;
50128;SDS011;36026;45.478;9.224;2023-05-18T11:36:31;5.50;;;2.78;;
50128;SDS011;36026;45.478;9.224;2023-05-18T11:39:52;5.47;;;2.70;;
50128;SDS011;36026;45.478;9.224;2023-05-18T11:42:56;7.03;;;2.58;;
50128;SDS011;36026;45.478;9.224;2023-05-18T11:45:58;4.07;;;3.30;;
50128;SDS011;36026;45.478;9.224;2023-05-18T11:49:01;4.55;;;2.72;;
50128;SDS011;36026;45.478;9.224;2023-05-18T11:52:12;5.53;;;2.95;;
50128;SDS011;36026;45.478;9.224;2023-05-18T11:55:17;6.50;;;3.05;;
50128;SDS011;36026;45.478;9.224;2023-05-18T12:01:21;4.72;;;3.00;;
50128;SDS011;36026;45.478;9.224;2023-05-18T12:04:23;5.50;;;2.55;;
50128;SDS011;36026;45.478;9.224;2023-05-18T12:07:26;5.80;;;2.70;;
50128;SDS011;36026;45.478;9.224;2023-05-18T12:10:29;6.03;;;3.05;;
50128;SDS011;36026;45.478;9.224;2023-05-18T12:13:31;5.13;;;2.92;;
50128;SDS011;36026;45.478;9.224;2023-05-18T12:16:32;4.05;;;2.60;;
50128;SDS011;36026;45.478;9.224;2023-05-18T12:19:37;5.53;;;2.50;;
50128;SDS011;36026;45.478;9.224;2023-05-18T12:22:44;6.85;;;2.80;;
50128;SDS011;36026;45.478;9.224;2023-05-18T12:25:49;5.07;;;2.70;;
50128;SDS011;36026;45.478;9.224;2023-05-18T12:28:50;4.00;;;2.55;;
50128;SDS011;36026;45.478;9.224;2023-05-18T12:31:53;2.70;;;2.10;;
50128;SDS011;36026;45.478;9.224;2023-05-18T12:34:55;2.92;;;2.10;;
50128;SDS011;36026;45.478;9.224;2023-05-18T12:37:58;4.47;;;2.28;;
50128;SDS011;36026;45.478;9.224;2023-05-18T12:44:01;3.08;;;2.30;;
50128;SDS011;36026;45.478;9.224;2023-05-18T12:47:04;3.97;;;2.38;;
50128;SDS011;36026;45.478;9.224;2023-05-18T12:50:06;4.35;;;2.47;;
50128;SDS011;36026;45.478;9.224;2023-05-18T12:53:09;4.07;;;2.42;;
50128;SDS011;36026;45.478;9.224;2023-05-18T12:56:11;4.43;;;1.85;;
50128;SDS011;36026;45.478;9.224;2023-05-18T12:59:16;4.45;;;2.47;;
50128;SDS011;36026;45.478;9.224;2023-05-18T13:02:28;3.08;;;2.10;;
50128;SDS011;36026;45.478;9.224;2023-05-18T13:05:31;5.35;;;2.03;;
50128;SDS011;36026;45.478;9.224;2023-05-18T13:08:35;2.28;;;1.70;;
50128;SDS011;36026;45.478;9.224;2023-05-18T13:11:37;3.28;;;2.08;;
50128;SDS011;36026;45.478;9.224;2023-05-18T13:14:39;5.22;;;2.10;;
50128;SDS011;36026;45.478;9.224;2023-05-18T13:17:54;4.45;;;2.10;;
50128;SDS011;36026;45.478;9.224;2023-05-18T13:20:57;4.80;;;2.10;;
50128;SDS011;36026;45.478;9.224;2023-05-18T13:24:00;7.85;;;2.05;;
50128;SDS011;36026;45.478;9.224;2023-05-18T13:27:02;5.10;;;2.28;;
50128;SDS011;36026;45.478;9.224;2023-05-18T13:30:04;2.65;;;2.15;;
50128;SDS011;36026;45.478;9.224;2023-05-18T13:33:07;2.53;;;1.98;;
50128;SDS011;36026;45.478;9.224;2023-05-18T13:36:09;3.05;;;2.15;;
50128;SDS011;36026;45.478;9.224;2023-05-18T13:39:12;3.40;;;1.95;;
50128;SDS011;36026;45.478;9.224;2023-05-18T13:42:14;4.78;;;1.80;;
50128;SDS011;36026;45.478;9.224;2023-05-18T13:45:20;4.72;;;2.33;;
50128;SDS011;36026;45.478;9.224;2023-05-18T13:48:21;2.73;;;2.27;;
50128;SDS011;36026;45.478;9.224;2023-05-18T13:51:23;3.43;;;2.20;;
50128;SDS011;36026;45.478;9.224;2023-05-18T13:54:26;2.78;;;2.33;;
50128;SDS011;36026;45.478;9.224;2023-05-18T14:00:31;5.05;;;2.47;;
50128;SDS011;36026;45.478;9.224;2023-05-18T14:03:32;3.95;;;2.03;;
50128;SDS011;36026;45.478;9.224;2023-05-18T14:06:35;4.60;;;2.33;;
50128;SDS011;36026;45.478;9.224;2023-05-18T14:09:38;4.13;;;2.38;;
50128;SDS011;36026;45.478;9.224;2023-05-18T14:12:40;3.95;;;2.40;;
50128;SDS011;36026;45.478;9.224;2023-05-18T14:15:42;2.85;;;2.10;;
50128;SDS011;36026;45.478;9.224;2023-05-18T14:18:44;3.63;;;2.28;;
50128;SDS011;36026;45.478;9.224;2023-05-18T14:21:45;4.28;;;2.25;;
50128;SDS011;36026;45.478;9.224;2023-05-18T14:24:48;2.80;;;1.83;;
50128;SDS011;36026;45.478;9.224;2023-05-18T14:27:50;2.40;;;1.60;;
50128;SDS011;36026;45.478;9.224;2023-05-18T14:30:52;7.03;;;1.90;;
50128;SDS011;36026;45.478;9.224;2023-05-18T14:33:53;3.45;;;1.45;;
50128;SDS011;36026;45.478;9.224;2023-05-18T14:36:55;3.25;;;1.30;;
50128;SDS011;36026;45.478;9.224;2023-05-18T14:39:58;2.00;;;1.50;;
50128;SDS011;36026;45.478;9.224;2023-05-18T14:43:00;4.03;;;2.08;;
50128;SDS011;36026;45.478;9.224;2023-05-18T14:46:02;2.45;;;1.88;;
50128;SDS011;36026;45.478;9.224;2023-05-18T14:49:03;2.15;;;1.60;;
50128;SDS011;36026;45.478;9.224;2023-05-18T14:52:05;4.65;;;1.70;;
50128;SDS011;36026;45.478;9.224;2023-05-18T14:55:08;3.20;;;1.42;;
50128;SDS011;36026;45.478;9.224;2023-05-18T14:58:10;5.28;;;2.03;;
50128;SDS011;36026;45.478;9.224;2023-05-18T15:04:15;4.30;;;2.50;;
50128;SDS011;36026;45.478;9.224;2023-05-18T15:07:16;4.20;;;2.08;;
50128;SDS011;36026;45.478;9.224;2023-05-18T15:10:20;2.53;;;1.75;;
50128;SDS011;36026;45.478;9.224;2023-05-18T15:13:22;2.95;;;1.67;;
50128;SDS011;36026;45.478;9.224;2023-05-18T15:16:24;4.55;;;2.75;;
50128;SDS011;36026;45.478;9.224;2023-05-18T15:19:26;4.20;;;2.00;;
50128;SDS011;36026;45.478;9.224;2023-05-18T15:22:27;3.22;;;1.83;;
50128;SDS011;36026;45.478;9.224;2023-05-18T15:25:30;5.72;;;1.92;;
50128;SDS011;36026;45.478;9.224;2023-05-18T15:28:32;5.18;;;2.00;;
50128;SDS011;36026;45.478;9.224;2023-05-18T15:31:34;3.70;;;2.15;;
50128;SDS011;36026;45.478;9.224;2023-05-18T15:34:38;4.72;;;2.10;;
50128;SDS011;36026;45.478;9.224;2023-05-18T15:37:40;91.55;;;59.95;;
50128;SDS011;36026;45.478;9.224;2023-05-18T15:40:43;100.30;;;65.18;;
50128;SDS011;36026;45.478;9.224;2023-05-18T15:43:46;94.55;;;61.40;;
50128;SDS011;36026;45.478;9.224;2023-05-18T15:46:48;59.28;;;36.88;;
50128;SDS011;36026;45.478;9.224;2023-05-18T15:49:50;8.60;;;3.47;;
50128;SDS011;36026;45.478;9.224;2023-05-18T15:52:52;4.15;;;1.92;;
50128;SDS011;36026;45.478;9.224;2023-05-18T15:55:55;2.90;;;1.85;;
50128;SDS011;36026;45.478;9.224;2023-05-18T15:58:57;4.38;;;1.73;;
50128;SDS011;36026;45.478;9.224;2023-05-18T16:01:59;1.70;;;1.40;;
50128;SDS011;36026;45.478;9.224;2023-05-18T16:05:00;5.90;;;1.50;;
50128;SDS011;36026;45.478;9.224;2023-05-18T16:08:02;3.08;;;1.85;;
50128;SDS011;36026;45.478;9.224;2023-05-18T16:11:05;3.53;;;1.67;;
50128;SDS011;36026;45.478;9.224;2023-05-18T16:14:07;2.40;;;1.70;;
50128;SDS011;36026;45.478;9.224;2023-05-18T16:17:08;7.25;;;1.90;;
50128;SDS011;36026;45.478;9.224;2023-05-18T16:20:10;3.10;;;1.50;;
50128;SDS011;36026;45.478;9.224;2023-05-18T16:23:12;3.65;;;1.40;;
50128;SDS011;36026;45.478;9.224;2023-05-18T16:26:15;2.13;;;1.58;;
50128;SDS011;36026;45.478;9.224;2023-05-18T16:29:25;2.47;;;1.50;;
50128;SDS011;36026;45.478;9.224;2023-05-18T16:32:27;1.98;;;1.25;;
50128;SDS011;36026;45.478;9.224;2023-05-18T16:35:31;2.25;;;1.05;;
50128;SDS011;36026;45.478;9.224;2023-05-18T16:38:33;4.35;;;1.50;;
50128;SDS011;36026;45.478;9.224;2023-05-18T16:41:37;2.28;;;1.40;;
50128;SDS011;36026;45.478;9.224;2023-05-18T16:44:39;2.15;;;1.30;;
50128;SDS011;36026;45.478;9.224;2023-05-18T16:47:41;3.20;;;1.40;;
50128;SDS011;36026;45.478;9.224;2023-05-18T16:50:43;1.60;;;1.45;;
50128;SDS011;36026;45.478;9.224;2023-05-18T16:53:45;3.10;;;1.25;;
50128;SDS011;36026;45.478;9.224;2023-05-18T16:56:52;6.05;;;1.70;;
50128;SDS011;36026;45.478;9.224;2023-05-18T17:02:59;2.33;;;1.35;;
50128;SDS011;36026;45.478;9.224;2023-05-18T17:06:02;2.80;;;1.20;;
50128;SDS011;36026;45.478;9.224;2023-05-18T17:09:04;5.03;;;1.48;;
50128;SDS011;36026;45.478;9.224;2023-05-18T17:12:08;2.30;;;1.20;;
50128;SDS011;36026;45.478;9.224;2023-05-18T17:15:10;2.97;;;1.00;;
50128;SDS011;36026;45.478;9.224;2023-05-18T17:18:12;2.83;;;1.20;;
50128;SDS011;36026;45.478;9.224;2023-05-18T17:21:14;2.78;;;1.30;;
50128;SDS011;36026;45.478;9.224;2023-05-18T17:24:16;3.85;;;1.20;;
50128;SDS011;36026;45.478;9.224;2023-05-18T17:27:19;2.03;;;1.27;;
50128;SDS011;36026;45.478;9.224;2023-05-18T17:30:21;2.88;;;1.35;;
50128;SDS011;36026;45.478;9.224;2023-05-18T17:33:23;2.58;;;1.10;;
50128;SDS011;36026;45.478;9.224;2023-05-18T17:36:25;2.33;;;0.98;;
50128;SDS011;36026;45.478;9.224;2023-05-18T17:39:30;5.05;;;1.67;;
50128;SDS011;36026;45.478;9.224;2023-05-18T17:42:33;3.97;;;1.50;;
50128;SDS011;36026;45.478;9.224;2023-05-18T17:45:35;3.05;;;1.30;;
50128;SDS011;36026;45.478;9.224;2023-05-18T17:48:37;3.78;;;1.10;;
50128;SDS011;36026;45.478;9.224;2023-05-18T17:51:39;2.15;;;1.50;;
50128;SDS011;36026;45.478;9.224;2023-05-18T17:54:41;5.50;;;1.48;;
50128;SDS011;36026;45.478;9.224;2023-05-18T17:57:44;3.05;;;1.25;;
50128;SDS011;36026;45.478;9.224;2023-05-18T18:00:46;3.78;;;1.38;;
50128;SDS011;36026;45.478;9.224;2023-05-18T18:03:47;1.90;;;1.20;;
50128;SDS011;36026;45.478;9.224;2023-05-18T18:06:49;4.32;;;1.60;;
50128;SDS011;36026;45.478;9.224;2023-05-18T18:12:56;3.10;;;1.20;;
50128;SDS011;36026;45.478;9.224;2023-05-18T18:15:57;3.13;;;1.20;;
50128;SDS011;36026;45.478;9.224;2023-05-18T18:18:59;7.50;;;1.73;;
50128;SDS011;36026;45.478;9.224;2023-05-18T18:22:01;5.68;;;1.83;;
50128;SDS011;36026;45.478;9.224;2023-05-18T18:25:04;2.80;;;1.85;;
50128;SDS011;36026;45.478;9.224;2023-05-18T18:28:07;2.20;;;1.50;;
50128;SDS011;36026;45.478;9.224;2023-05-18T18:31:13;4.97;;;1.40;;
50128;SDS011;36026;45.478;9.224;2023-05-18T18:34:15;2.88;;;1.55;;
50128;SDS011;36026;45.478;9.224;2023-05-18T18:37:17;3.45;;;1.60;;
50128;SDS011;36026;45.478;9.224;2023-05-18T18:40:23;2.88;;;1.75;;
50128;SDS011;36026;45.478;9.224;2023-05-18T18:43:27;2.95;;;1.67;;
50128;SDS011;36026;45.478;9.224;2023-05-18T18:46:29;4.20;;;2.60;;